Time;durP1;ratioP1;P1;durP2;ratioP2;P2;SDS_P1;SDS_P2;PMS_P1;PMS_P2;Temp;Humidity;BMP_temperature;BMP_pressure;BME280_temperature;BME280_humidity;BME280_pressure;Samples;Min_cycle;Max_cycle;Signal;HPM_P1;HPM_P2
2022/07/12 00:00:47;;;;;;;;;;;;;;;;;;5114476;28;20313;-77
2022/07/12 00:03:13;;;;;;;;;;;;;;;;;;5114437;28;19996;-77
2022/07/12 00:05:38;;;;;;;;;;;;;;;;;;5114343;28;19962;-76
2022/07/12 00:08:04;;;;;;;;;;;;;;;;;;5112867;28;19954;-77
2022/07/12 00:10:29;;;;;;;;;;;;;;;;;;5114273;28;19919;-76
2022/07/12 00:12:54;;;;;;;;;;;;;;;;;;5112843;28;19966;-76
2022/07/12 00:15:20;;;;;;;;;;;;;;;;;;5114661;28;20311;-77
2022/07/12 00:17:45;;;;;;;;;;;;;;;;;;5114080;28;19923;-76
2022/07/12 00:20:11;;;;;;;;;;;;;;;;;;5112809;28;20001;-76
2022/07/12 00:22:36;;;;;;;;;;;;;;;;;;5112945;28;19911;-76
2022/07/12 00:25:01;;;;;;;;;;;;;;;;;;5113137;28;19960;-76
2022/07/12 00:27:28;;;;;;;;;;;;;;;;;;5114202;28;20362;-76
2022/07/12 00:29:53;;;;;;;;;;;;;;;;;;5114185;28;19972;-76
2022/07/12 00:32:19;;;;;;;;;;;;;;;;;;5114107;28;19916;-76
2022/07/12 00:34:44;;;;;;;;;;;;;;;;;;5114281;28;20416;-76
2022/07/12 00:37:09;;;;;;;;;;;;;;;;;;5112942;28;19916;-76
2022/07/12 00:39:34;;;;;;;;;;;;;;;;;;5112694;28;19911;-76
2022/07/12 00:42:00;;;;;;;;;;;;;;;;;;5095667;28;19998;-77
2022/07/12 00:44:26;;;;;;;;;;;;;;;;;;5113927;28;20281;-77
2022/07/12 00:46:51;;;;;;;;;;;;;;;;;;5113979;28;20053;-76
2022/07/12 00:49:17;;;;;;;;;;;;;;;;;;5114298;28;19951;-76
2022/07/12 00:51:42;;;;;;;;;;;;;;;;;;5100150;28;19919;-76
2022/07/12 00:54:08;;;;;;;;;;;;;;;;;;5116864;28;20437;-76
2022/07/12 00:56:33;;;;;;;;;;;;;;;;;;5116764;28;19926;-76
2022/07/12 00:58:58;;;;;;;;;;;;;;;;;;5118086;28;19916;-76
2022/07/12 01:01:23;;;;;;;;;;;;;;;;;;5116899;28;20327;-77
2022/07/12 01:03:49;;;;;;;;;;;;;;;;;;5116565;28;19922;-76
2022/07/12 01:06:14;;;;;;;;;;;;;;;;;;5116908;28;19916;-76
2022/07/12 01:08:39;;;;;;;;;;;;;;;;;;5116769;28;19916;-76
2022/07/12 01:11:04;;;;;;;;;;;;;;;;;;5116583;28;19941;-76
2022/07/12 01:13:30;;;;;;;;;;;;;;;;;;5099434;28;20006;-76
2022/07/12 01:15:55;;;;;;;;;;;;;;;;;;5099346;28;19938;-76
2022/07/12 01:18:20;;;;;;;;;;;;;;;;;;5116486;28;19916;-76
2022/07/12 01:20:45;;;;;;;;;;;;;;;;;;5118031;28;20354;-76
2022/07/12 01:23:11;;;;;;;;;;;;;;;;;;5099632;28;19911;-76
2022/07/12 01:25:36;;;;;;;;;;;;;;;;;;5116151;28;19923;-76
2022/07/12 01:28:02;;;;;;;;;;;;;;;;;;5117610;28;19923;-76
2022/07/12 01:30:27;;;;;;;;;;;;;;;;;;5116600;28;19985;-76
2022/07/12 01:32:52;;;;;;;;;;;;;;;;;;5117229;28;19924;-76
2022/07/12 01:35:17;;;;;;;;;;;;;;;;;;5117520;28;19916;-76
2022/07/12 01:37:43;;;;;;;;;;;;;;;;;;5098916;28;19999;-76
2022/07/12 01:40:09;;;;;;;;;;;;;;;;;;5117214;28;20328;-76
2022/07/12 01:42:35;;;;;;;;;;;;;;;;;;5116001;28;20270;-77
2022/07/12 01:45:00;;;;;;;;;;;;;;;;;;5115893;28;19919;-76
2022/07/12 01:47:27;;;;;;;;;;;;;;;;;;5117070;28;19915;-76
2022/07/12 01:49:52;;;;;;;;;;;;;;;;;;5115774;28;20430;-76
2022/07/12 01:52:17;;;;;;;;;;;;;;;;;;5116071;28;19984;-76
2022/07/12 01:54:43;;;;;;;;;;;;;;;;;;5115961;28;20315;-77
2022/07/12 01:57:08;;;;;;;;;;;;;;;;;;5116130;28;19939;-77
2022/07/12 01:59:33;;;;;;;;;;;;;;;;;;5115540;28;19946;-77
2022/07/12 02:01:59;;;;;;;;;;;;;;;;;;5115651;28;19912;-76
2022/07/12 02:04:24;;;;;;;;;;;;;;;;;;5115653;28;20421;-76
2022/07/12 02:06:49;;;;;;;;;;;;;;;;;;5115620;28;19911;-76
2022/07/12 02:09:15;;;;;;;;;;;;;;;;;;5117076;28;20376;-76
2022/07/12 02:11:40;;;;;;;;;;;;;;;;;;5115564;28;19954;-76
2022/07/12 02:14:06;;;;;;;;;;;;;;;;;;5098159;28;19920;-77
2022/07/12 02:16:31;;;;;;;;;;;;;;;;;;5115720;28;20384;-76
2022/07/12 02:18:57;;;;;;;;;;;;;;;;;;5098193;28;20291;-77
2022/07/12 02:21:22;;;;;;;;;;;;;;;;;;5115201;28;20316;-76
2022/07/12 02:23:47;;;;;;;;;;;;;;;;;;5115217;28;19912;-76
2022/07/12 02:26:13;;;;;;;;;;;;;;;;;;5116373;28;19920;-77
2022/07/12 02:28:38;;;;;;;;;;;;;;;;;;5115116;28;19966;-77
2022/07/12 02:31:03;;;;;;;;;;;;;;;;;;5115224;28;19924;-77
2022/07/12 02:33:28;;;;;;;;;;;;;;;;;;5116561;28;19920;-76
2022/07/12 02:35:54;;;;;;;;;;;;;;;;;;5116389;28;19934;-76
2022/07/12 02:38:21;;;;;;;;;;;;;;;;;;5114782;28;20366;-77
2022/07/12 02:40:55;;;;;;;;;;;;;;;;;;5114746;28;19919;-76
2022/07/12 02:43:21;;;;;;;;;;;;;;;;;;5115859;28;19916;-76
2022/07/12 02:45:46;;;;;;;;;;;;;;;;;;5115971;28;20262;-76
2022/07/12 02:48:12;;;;;;;;;;;;;;;;;;5114893;28;20358;-77
2022/07/12 02:50:37;;;;;;;;;;;;;;;;;;5116076;28;19978;-77
2022/07/12 02:53:03;;;;;;;;;;;;;;;;;;5115522;28;19919;-76
2022/07/12 02:55:28;;;;;;;;;;;;;;;;;;5114191;28;19995;-77
2022/07/12 02:57:54;;;;;;;;;;;;;;;;;;5115803;28;20370;-76
2022/07/12 03:00:19;;;;;;;;;;;;;;;;;;5116042;28;19985;-76
2022/07/12 03:02:44;;;;;;;;;;;;;;;;;;5115354;28;19966;-77
2022/07/12 03:05:10;;;;;;;;;;;;;;;;;;5114217;28;19923;-77
2022/07/12 03:07:35;;;;;;;;;;;;;;;;;;5113986;28;20285;-76
2022/07/12 03:10:00;;;;;;;;;;;;;;;;;;5115318;28;19981;-76
2022/07/12 03:12:25;;;;;;;;;;;;;;;;;;5114720;28;19945;-77
2022/07/12 03:14:51;;;;;;;;;;;;;;;;;;5115642;28;19970;-77
2022/07/12 03:17:16;;;;;;;;;;;;;;;;;;5114002;28;19974;-77
2022/07/12 03:19:41;;;;;;;;;;;;;;;;;;5113941;28;19920;-77
2022/07/12 03:22:06;;;;;;;;;;;;;;;;;;5115144;28;19916;-76
2022/07/12 03:24:32;;;;;;;;;;;;;;;;;;5115196;28;19916;-77
2022/07/12 03:26:57;;;;;;;;;;;;;;;;;;5115484;28;19916;-76
2022/07/12 03:29:23;;;;;;;;;;;;;;;;;;5114883;28;19988;-76
2022/07/12 03:31:48;;;;;;;;;;;;;;;;;;5096772;28;20467;-76
2022/07/12 03:34:14;;;;;;;;;;;;;;;;;;5115344;28;19930;-76
2022/07/12 03:36:39;;;;;;;;;;;;;;;;;;5113475;28;20280;-76
2022/07/12 03:39:04;;;;;;;;;;;;;;;;;;5113719;28;19920;-76
2022/07/12 03:41:29;;;;;;;;;;;;;;;;;;5115149;28;19922;-76
2022/07/12 03:43:55;;;;;;;;;;;;;;;;;;5114946;28;19955;-76
2022/07/12 03:46:20;;;;;;;;;;;;;;;;;;5114642;28;20323;-78
2022/07/12 03:48:45;;;;;;;;;;;;;;;;;;5114768;28;20010;-76
2022/07/12 03:51:10;;;;;;;;;;;;;;;;;;5113323;28;19922;-76
2022/07/12 03:53:36;;;;;;;;;;;;;;;;;;5114677;28;20288;-76
2022/07/12 03:56:01;;;;;;;;;;;;;;;;;;5114300;28;19923;-76
2022/07/12 03:58:26;;;;;;;;;;;;;;;;;;5113215;28;19923;-76
2022/07/12 04:00:51;;;;;;;;;;;;;;;;;;5114262;28;19999;-76
2022/07/12 04:03:17;;;;;;;;;;;;;;;;;;5113002;28;20010;-76
2022/07/12 04:05:42;;;;;;;;;;;;;;;;;;5113683;28;19918;-75
2022/07/12 04:08:07;;;;;;;;;;;;;;;;;;5113512;28;19966;-76
2022/07/12 04:10:33;;;;;;;;;;;;;;;;;;5095995;28;20010;-76
2022/07/12 04:12:58;;;;;;;;;;;;;;;;;;5114099;28;19927;-76
2022/07/12 04:15:23;;;;;;;;;;;;;;;;;;5114158;28;19926;-75
2022/07/12 04:17:48;;;;;;;;;;;;;;;;;;5114484;28;19920;-76
2022/07/12 04:20:14;;;;;;;;;;;;;;;;;;5113008;28;19912;-75
2022/07/12 04:22:39;;;;;;;;;;;;;;;;;;5112981;28;20431;-75
2022/07/12 04:25:05;;;;;;;;;;;;;;;;;;5112008;28;20003;-76
2022/07/12 04:27:31;;;;;;;;;;;;;;;;;;5112717;28;19937;-78
2022/07/12 04:29:56;;;;;;;;;;;;;;;;;;5114269;28;19920;-78
2022/07/12 04:32:21;;;;;;;;;;;;;;;;;;5113618;28;20003;-78
2022/07/12 04:34:46;;;;;;;;;;;;;;;;;;5113504;28;20421;-77
2022/07/12 04:37:12;;;;;;;;;;;;;;;;;;5112261;28;19912;-78
2022/07/12 04:39:37;;;;;;;;;;;;;;;;;;5113596;28;19916;-79
2022/07/12 04:42:02;;;;;;;;;;;;;;;;;;5112186;28;20271;-78
2022/07/12 04:44:28;;;;;;;;;;;;;;;;;;5113451;28;19912;-78
2022/07/12 04:46:53;;;;;;;;;;;;;;;;;;5113455;28;19916;-78
2022/07/12 04:49:18;;;;;;;;;;;;;;;;;;5113311;28;20008;-78
2022/07/12 04:51:43;;;;;;;;;;;;;;;;;;5113583;28;19923;-78
2022/07/12 04:54:09;;;;;;;;;;;;;;;;;;5111680;28;20368;-77
2022/07/12 04:56:34;;;;;;;;;;;;;;;;;;5113816;28;19966;-80
2022/07/12 04:59:00;;;;;;;;;;;;;;;;;;5112137;28;20369;-78
2022/07/12 05:01:25;;;;;;;;;;;;;;;;;;5112043;28;19920;-78
2022/07/12 05:03:50;;;;;;;;;;;;;;;;;;5095422;28;19946;-78
2022/07/12 05:06:16;;;;;;;;;;;;;;;;;;5091763;28;19923;-78
2022/07/12 05:08:41;;;;;;;;;;;;;;;;;;5093659;28;19922;-78
2022/07/12 05:11:06;;;;;;;;;;;;;;;;;;5091894;28;19917;-78
2022/07/12 05:13:32;;;;;;;;;;;;;;;;;;5091644;28;19927;-78
2022/07/12 05:15:57;;;;;;;;;;;;;;;;;;5092170;28;19924;-78
2022/07/12 05:18:22;;;;;;;;;;;;;;;;;;5092761;28;20452;-77
2022/07/12 05:20:47;;;;;;;;;;;;;;;;;;5091333;28;19951;-77
2022/07/12 05:23:13;;;;;;;;;;;;;;;;;;5093171;28;20425;-75
2022/07/12 05:25:38;;;;;;;;;;;;;;;;;;5092934;28;19917;-77
2022/07/12 05:28:03;;;;;;;;;;;;;;;;;;5074454;28;19965;-77
2022/07/12 05:30:29;;;;;;;;;;;;;;;;;;5092882;28;19920;-77
2022/07/12 05:32:54;;;;;;;;;;;;;;;;;;5092488;28;19973;-77
2022/07/12 05:35:19;;;;;;;;;;;;;;;;;;5093350;28;20250;-77
2022/07/12 05:37:44;;;;;;;;;;;;;;;;;;5096251;28;19916;-77
2022/07/12 05:40:10;;;;;;;;;;;;;;;;;;5095191;28;19912;-77
2022/07/12 05:42:36;;;;;;;;;;;;;;;;;;5095000;28;20429;-77
2022/07/12 05:45:01;;;;;;;;;;;;;;;;;;5095117;28;19978;-77
2022/07/12 05:47:28;;;;;;;;;;;;;;;;;;5096321;28;20014;-77
2022/07/12 05:49:53;;;;;;;;;;;;;;;;;;5096154;28;19916;-77
2022/07/12 05:55:02;;;;;;;;;;;;;;;;;;5094675;28;19932;-77
2022/07/12 05:57:28;;;;;;;;;;;;;;;;;;5096494;28;19916;-76
2022/07/12 05:59:53;;;;;;;;;;;;;;;;;;5094742;28;19960;-76
2022/07/12 06:02:19;;;;;;;;;;;;;;;;;;5096022;28;19923;-78
2022/07/12 06:04:44;;;;;;;;;;;;;;;;;;5096686;28;19967;-77
2022/07/12 06:07:09;;;;;;;;;;;;;;;;;;5095112;28;19916;-75
2022/07/12 06:09:34;;;;;;;;;;;;;;;;;;5096166;28;20373;-76
2022/07/12 06:12:00;;;;;;;;;;;;;;;;;;5096146;28;19916;-77
2022/07/12 06:14:25;;;;;;;;;;;;;;;;;;5094747;28;19920;-75
2022/07/12 06:16:50;;;;;;;;;;;;;;;;;;5077462;28;20367;-76
2022/07/12 06:19:15;;;;;;;;;;;;;;;;;;5095611;28;19974;-76
2022/07/12 06:21:41;;;;;;;;;;;;;;;;;;5095768;28;20026;-76
2022/07/12 06:24:06;;;;;;;;;;;;;;;;;;5096160;28;19962;-76
2022/07/12 06:26:31;;;;;;;;;;;;;;;;;;5096044;28;19969;-76
2022/07/12 06:28:56;;;;;;;;;;;;;;;;;;5095493;28;20025;-76
2022/07/12 06:31:23;;;;;;;;;;;;;;;;;;5094649;28;19920;-76
2022/07/12 06:33:48;;;;;;;;;;;;;;;;;;5095565;28;19942;-75
2022/07/12 06:36:14;;;;;;;;;;;;;;;;;;5095563;28;19920;-76
2022/07/12 06:38:39;;;;;;;;;;;;;;;;;;5095513;28;20267;-76
2022/07/12 06:41:04;;;;;;;;;;;;;;;;;;5093903;28;19916;-76
2022/07/12 06:43:30;;;;;;;;;;;;;;;;;;5095205;28;19924;-76
2022/07/12 06:45:55;;;;;;;;;;;;;;;;;;5094781;28;20065;-76
2022/07/12 06:48:20;;;;;;;;;;;;;;;;;;5094543;28;19916;-76
2022/07/12 06:50:45;;;;;;;;;;;;;;;;;;5093919;28;19920;-76
2022/07/12 06:53:11;;;;;;;;;;;;;;;;;;5093781;28;19923;-76
2022/07/12 06:55:36;;;;;;;;;;;;;;;;;;5076720;28;19920;-76
2022/07/12 06:58:02;;;;;;;;;;;;;;;;;;5095113;28;20290;-75
2022/07/12 07:00:27;;;;;;;;;;;;;;;;;;5093339;28;19927;-76
2022/07/12 07:02:53;;;;;;;;;;;;;;;;;;5093429;28;20285;-76
2022/07/12 07:05:18;;;;;;;;;;;;;;;;;;5093945;28;19916;-76
2022/07/12 07:07:44;;;;;;;;;;;;;;;;;;5076493;28;19999;-76
2022/07/12 07:10:09;;;;;;;;;;;;;;;;;;5093809;28;20279;-76
2022/07/12 07:12:34;;;;;;;;;;;;;;;;;;5093266;28;19964;-76
2022/07/12 07:14:59;;;;;;;;;;;;;;;;;;5076345;28;19922;-76
2022/07/12 07:17:25;;;;;;;;;;;;;;;;;;5094613;28;19916;-76
2022/07/12 07:19:50;;;;;;;;;;;;;;;;;;5094368;28;19919;-76
2022/07/12 07:22:15;;;;;;;;;;;;;;;;;;5093162;28;19916;-75
2022/07/12 07:24:41;;;;;;;;;;;;;;;;;;5094853;28;19918;-76
2022/07/12 07:27:06;;;;;;;;;;;;;;;;;;5076702;28;19958;-75
2022/07/12 07:32:15;;;;;;;;;;;;;;;;;;5094421;28;19927;-76
2022/07/12 07:34:41;;;;;;;;;;;;;;;;;;5093179;28;19920;-75
2022/07/12 07:37:07;;;;;;;;;;;;;;;;;;5094335;28;19916;-77
2022/07/12 07:39:32;;;;;;;;;;;;;;;;;;5075961;28;19946;-76
2022/07/12 07:41:57;;;;;;;;;;;;;;;;;;5094688;28;19923;-77
2022/07/12 07:44:23;;;;;;;;;;;;;;;;;;5094561;28;19964;-76
2022/07/12 07:46:48;;;;;;;;;;;;;;;;;;5094544;28;20244;-77
2022/07/12 07:49:14;;;;;;;;;;;;;;;;;;5092969;28;19920;-77
2022/07/12 07:51:39;;;;;;;;;;;;;;;;;;5093891;28;19987;-76
2022/07/12 07:54:04;;;;;;;;;;;;;;;;;;5092623;28;20301;-76
2022/07/12 07:56:29;;;;;;;;;;;;;;;;;;5094440;28;19916;-75
2022/07/12 07:58:55;;;;;;;;;;;;;;;;;;5093749;28;20304;-75
2022/07/12 08:01:20;;;;;;;;;;;;;;;;;;5094314;28;19920;-75
2022/07/12 08:03:45;;;;;;;;;;;;;;;;;;5093997;28;19956;-74
2022/07/12 08:06:11;;;;;;;;;;;;;;;;;;5094964;28;19916;-75
2022/07/12 08:08:36;;;;;;;;;;;;;;;;;;5093937;28;20243;-76
2022/07/12 08:11:01;;;;;;;;;;;;;;;;;;5093955;28;19916;-76
2022/07/12 08:13:26;;;;;;;;;;;;;;;;;;5093856;28;20376;-76
2022/07/12 08:15:52;;;;;;;;;;;;;;;;;;5094159;28;19916;-76
2022/07/12 08:18:17;;;;;;;;;;;;;;;;;;5093041;28;19939;-77
2022/07/12 08:20:42;;;;;;;;;;;;;;;;;;5092857;28;19916;-76
2022/07/12 08:23:08;;;;;;;;;;;;;;;;;;5093586;28;19961;-76
2022/07/12 08:25:33;;;;;;;;;;;;;;;;;;5075540;28;19922;-77
2022/07/12 08:27:58;;;;;;;;;;;;;;;;;;5093357;28;19916;-76
2022/07/12 08:30:23;;;;;;;;;;;;;;;;;;5092266;28;20372;-76
2022/07/12 08:32:49;;;;;;;;;;;;;;;;;;5093312;28;19927;-77
2022/07/12 08:35:14;;;;;;;;;;;;;;;;;;5093472;28;19916;-76
2022/07/12 08:37:40;;;;;;;;;;;;;;;;;;5076845;28;19919;-76
2022/07/12 08:40:06;;;;;;;;;;;;;;;;;;5093830;28;19912;-76
2022/07/12 08:42:31;;;;;;;;;;;;;;;;;;5091943;28;19912;-77
2022/07/12 08:44:57;;;;;;;;;;;;;;;;;;5093728;28;20389;-77
2022/07/12 08:47:22;;;;;;;;;;;;;;;;;;5092601;28;19912;-77
2022/07/12 08:50:07;;;;;;;;;;;;;;;;;;5092638;28;19916;-76
2022/07/12 08:52:32;;;;;;;;;;;;;;;;;;5093856;28;19919;-76
2022/07/12 08:54:57;;;;;;;;;;;;;;;;;;5091574;28;19924;-76
2022/07/12 08:57:30;;;;;;;;;;;;;;;;;;5091954;28;20234;-77
2022/07/12 08:59:59;;;;;;;;;;;;;;;;;;5091929;28;19927;-76
2022/07/12 09:02:25;;;;;;;;;;;;;;;;;;5093620;28;19916;-77
2022/07/12 09:05:05;;;;;;;;;;;;;;;;;;5092855;28;20006;-76
2022/07/12 09:07:30;;;;;;;;;;;;;;;;;;5091810;28;20333;-77
2022/07/12 09:09:55;;;;;;;;;;;;;;;;;;5094633;28;20003;-76
2022/07/12 09:12:24;;;;;;;;;;;;;;;;;;5079873;28;20428;-76
2022/07/12 09:14:52;;;;;;;;;;;;;;;;;;5096866;28;19920;-76
2022/07/12 09:17:17;;;;;;;;;;;;;;;;;;5095947;28;19912;-77
2022/07/12 09:19:53;;;;;;;;;;;;;;;;;;5079012;28;19939;-77
2022/07/12 09:22:19;;;;;;;;;;;;;;;;;;5097531;28;19912;-76
2022/07/12 09:24:44;;;;;;;;;;;;;;;;;;5095619;28;19919;-76
2022/07/12 09:27:09;;;;;;;;;;;;;;;;;;5096898;28;19919;-76
2022/07/12 09:29:45;;;;;;;;;;;;;;;;;;5096568;28;20393;-78
2022/07/12 09:37:42;;;;;;;;;;;;;;;;;;5096094;28;20007;-77
2022/07/12 09:40:07;;;;;;;;;;;;;;;;;;5096760;28;19960;-77
2022/07/12 09:42:33;;;;;;;;;;;;;;;;;;5095263;28;19919;-76
2022/07/12 09:44:58;;;;;;;;;;;;;;;;;;5078794;28;19942;-76
2022/07/12 09:47:23;;;;;;;;;;;;;;;;;;5095803;28;19927;-77
2022/07/12 09:49:49;;;;;;;;;;;;;;;;;;5095761;28;19938;-76
2022/07/12 09:52:24;;;;;;;;;;;;;;;;;;5096857;28;19916;-76
2022/07/12 09:54:50;;;;;;;;;;;;;;;;;;5094966;28;19920;-77
2022/07/12 09:57:39;;;;;;;;;;;;;;;;;;5101082;28;19949;-76
2022/07/12 10:00:07;;;;;;;;;;;;;;;;;;5117370;28;19919;-77
2022/07/12 10:02:33;;;;;;;;;;;;;;;;;;5118543;28;20014;-77
2022/07/12 10:04:58;;;;;;;;;;;;;;;;;;5115311;28;19973;-77
2022/07/12 10:07:23;;;;;;;;;;;;;;;;;;5115243;28;19924;-77
2022/07/12 10:09:50;;;;;;;;;;;;;;;;;;5116778;28;19916;-77
2022/07/12 10:12:16;;;;;;;;;;;;;;;;;;5098475;28;19947;-77
2022/07/12 10:14:41;;;;;;;;;;;;;;;;;;5115183;28;19966;-77
2022/07/12 10:17:09;;;;;;;;;;;;;;;;;;5116703;28;20046;-76
2022/07/12 10:19:35;;;;;;;;;;;;;;;;;;5117625;28;19998;-76
2022/07/12 10:22:02;;;;;;;;;;;;;;;;;;5115808;28;20311;-76
2022/07/12 10:24:30;;;;;;;;;;;;;;;;;;5115250;28;19919;-76
2022/07/12 10:26:55;;;;;;;;;;;;;;;;;;5116671;28;19916;-76
2022/07/12 10:29:21;;;;;;;;;;;;;;;;;;5115367;28;19916;-76
2022/07/12 10:31:46;;;;;;;;;;;;;;;;;;5117347;28;19950;-76
2022/07/12 10:34:12;;;;;;;;;;;;;;;;;;5117219;28;19920;-76
2022/07/12 10:36:56;;;;;;;;;;;;;;;;;;5115324;28;19912;-77
2022/07/12 10:39:28;;;;;;;;;;;;;;;;;;5116274;28;19919;-76
2022/07/12 10:42:02;;;;;;;;;;;;;;;;;;5115433;28;19997;-76
2022/07/12 10:44:33;;;;;;;;;;;;;;;;;;5115830;28;19918;-76
2022/07/12 10:46:59;;;;;;;;;;;;;;;;;;5116208;28;20396;-74
2022/07/12 10:49:28;;;;;;;;;;;;;;;;;;5097441;28;20010;-76
2022/07/12 10:52:11;;;;;;;;;;;;;;;;;;5115584;28;19912;-76
2022/07/12 10:54:40;;;;;;;;;;;;;;;;;;5114121;28;20385;-76
2022/07/12 10:57:05;;;;;;;;;;;;;;;;;;5098242;28;19956;-77
2022/07/12 10:59:33;;;;;;;;;;;;;;;;;;5115283;28;19915;-76
2022/07/12 11:01:59;;;;;;;;;;;;;;;;;;5116305;28;19965;-76
2022/07/12 11:04:25;;;;;;;;;;;;;;;;;;5115246;28;19911;-76
2022/07/12 11:06:55;;;;;;;;;;;;;;;;;;5115571;28;20350;-76
2022/07/12 11:09:20;;;;;;;;;;;;;;;;;;5114986;28;19917;-76
2022/07/12 11:11:48;;;;;;;;;;;;;;;;;;5113525;28;20290;-76
2022/07/12 11:14:40;;;;;;;;;;;;;;;;;;5113593;28;19926;-77
2022/07/12 11:17:05;;;;;;;;;;;;;;;;;;5112261;28;20272;-77
2022/07/12 11:19:31;;;;;;;;;;;;;;;;;;5115019;28;19988;-77
2022/07/12 11:21:57;;;;;;;;;;;;;;;;;;5096538;28;19919;-78
2022/07/12 11:24:29;;;;;;;;;;;;;;;;;;5115587;28;19961;-77
2022/07/12 11:26:55;;;;;;;;;;;;;;;;;;5113847;28;19912;-77
2022/07/12 11:29:20;;;;;;;;;;;;;;;;;;5115133;28;19918;-77
2022/07/12 11:31:45;;;;;;;;;;;;;;;;;;5115130;28;19924;-77
2022/07/12 11:34:24;;;;;;;;;;;;;;;;;;5114521;28;19927;-77
2022/07/12 11:36:53;;;;;;;;;;;;;;;;;;5113384;28;19919;-78
2022/07/12 11:39:29;;;;;;;;;;;;;;;;;;5113586;28;19964;-76
2022/07/12 11:41:56;;;;;;;;;;;;;;;;;;5114611;28;19915;-76
2022/07/12 11:44:21;;;;;;;;;;;;;;;;;;5113386;28;20006;-77
2022/07/12 11:46:50;;;;;;;;;;;;;;;;;;5095912;28;19969;-76
2022/07/12 11:49:15;;;;;;;;;;;;;;;;;;5113196;28;19912;-76
2022/07/12 11:51:40;;;;;;;;;;;;;;;;;;5114095;28;19922;-76
2022/07/12 11:54:05;;;;;;;;;;;;;;;;;;5113896;28;19924;-76
2022/07/12 11:56:31;;;;;;;;;;;;;;;;;;5096496;28;19968;-76
2022/07/12 11:58:59;;;;;;;;;;;;;;;;;;5114255;28;19947;-76
2022/07/12 12:01:25;;;;;;;;;;;;;;;;;;5113845;28;20259;-76
2022/07/12 12:03:51;;;;;;;;;;;;;;;;;;5115001;28;20391;-76
2022/07/12 12:06:17;;;;;;;;;;;;;;;;;;5115673;28;19916;-76
2022/07/12 12:08:42;;;;;;;;;;;;;;;;;;5095909;28;19915;-77
2022/07/12 12:11:07;;;;;;;;;;;;;;;;;;5113175;28;20277;-76
2022/07/12 12:13:33;;;;;;;;;;;;;;;;;;5114515;28;19924;-77
2022/07/12 12:15:59;;;;;;;;;;;;;;;;;;5113900;28;19922;-77
2022/07/12 12:18:31;;;;;;;;;;;;;;;;;;5096039;28;19964;-76
2022/07/12 12:21:01;;;;;;;;;;;;;;;;;;5112634;28;19911;-76
2022/07/12 12:23:26;;;;;;;;;;;;;;;;;;5112920;28;19912;-77
2022/07/12 12:25:51;;;;;;;;;;;;;;;;;;5095553;28;19912;-76
2022/07/12 12:28:17;;;;;;;;;;;;;;;;;;5112272;28;19923;-77
2022/07/12 12:31:08;;;;;;;;;;;;;;;;;;5112979;28;20346;-77
2022/07/12 12:33:34;;;;;;;;;;;;;;;;;;5111079;28;20011;-77
2022/07/12 12:36:10;;;;;;;;;;;;;;;;;;5113834;28;19912;-77
2022/07/12 12:38:36;;;;;;;;;;;;;;;;;;5113319;28;19976;-77
2022/07/12 12:41:01;;;;;;;;;;;;;;;;;;5114076;28;20370;-77
2022/07/12 12:43:26;;;;;;;;;;;;;;;;;;5113004;28;19916;-77
2022/07/12 12:45:52;;;;;;;;;;;;;;;;;;5115551;28;20380;-76
2022/07/12 12:48:18;;;;;;;;;;;;;;;;;;5118111;28;20300;-77
2022/07/12 12:50:47;;;;;;;;;;;;;;;;;;5118503;28;19916;-77
2022/07/12 12:53:30;;;;;;;;;;;;;;;;;;5118329;28;19915;-77
2022/07/12 12:55:56;;;;;;;;;;;;;;;;;;5118462;28;20373;-77
2022/07/12 12:58:24;;;;;;;;;;;;;;;;;;5118038;28;19918;-77
2022/07/12 13:00:51;;;;;;;;;;;;;;;;;;5119284;28;19931;-77
2022/07/12 13:03:19;;;;;;;;;;;;;;;;;;5118498;28;20362;-77
2022/07/12 13:05:45;;;;;;;;;;;;;;;;;;5117079;28;20311;-77
2022/07/12 13:08:11;;;;;;;;;;;;;;;;;;5118544;28;19920;-78
2022/07/12 13:10:37;;;;;;;;;;;;;;;;;;5117136;28;19911;-78
2022/07/12 13:13:03;;;;;;;;;;;;;;;;;;5100322;28;19961;-78
2022/07/12 13:15:28;;;;;;;;;;;;;;;;;;5116876;28;19954;-79
2022/07/12 13:17:54;;;;;;;;;;;;;;;;;;5117212;28;19979;-77
2022/07/12 13:20:19;;;;;;;;;;;;;;;;;;5117412;28;19912;-78
2022/07/12 13:22:45;;;;;;;;;;;;;;;;;;5118754;28;19916;-78
2022/07/12 13:25:11;;;;;;;;;;;;;;;;;;5117184;28;20385;-78
2022/07/12 13:27:37;;;;;;;;;;;;;;;;;;5116071;28;19912;-77
2022/07/12 13:30:02;;;;;;;;;;;;;;;;;;5116022;28;19920;-78
2022/07/12 13:32:28;;;;;;;;;;;;;;;;;;5116094;28;19916;-77
2022/07/12 13:34:53;;;;;;;;;;;;;;;;;;5117916;28;19926;-76
2022/07/12 13:37:19;;;;;;;;;;;;;;;;;;5117852;28;20395;-76
2022/07/12 13:42:28;;;;;;;;;;;;;;;;;;5117034;28;19923;-76
2022/07/12 13:44:53;;;;;;;;;;;;;;;;;;5117117;28;19920;-77
2022/07/12 13:47:19;;;;;;;;;;;;;;;;;;5115332;28;19923;-78
2022/07/12 13:49:44;;;;;;;;;;;;;;;;;;5098369;28;19912;-77
2022/07/12 13:52:09;;;;;;;;;;;;;;;;;;5115672;28;19916;-76
2022/07/12 13:54:35;;;;;;;;;;;;;;;;;;5099529;28;19978;-76
2022/07/12 13:57:00;;;;;;;;;;;;;;;;;;5116815;28;19919;-76
2022/07/12 13:59:25;;;;;;;;;;;;;;;;;;5116340;28;19919;-76
2022/07/12 14:01:51;;;;;;;;;;;;;;;;;;5116191;28;19920;-76
2022/07/12 14:04:16;;;;;;;;;;;;;;;;;;5098318;28;19915;-77
2022/07/12 14:06:41;;;;;;;;;;;;;;;;;;5098330;28;20060;-76
2022/07/12 14:09:06;;;;;;;;;;;;;;;;;;5116578;28;19916;-76
2022/07/12 14:11:32;;;;;;;;;;;;;;;;;;5115678;28;20354;-76
2022/07/12 14:13:57;;;;;;;;;;;;;;;;;;5115478;28;19923;-77
2022/07/12 14:16:23;;;;;;;;;;;;;;;;;;5115229;28;19912;-76
2022/07/12 14:18:48;;;;;;;;;;;;;;;;;;5116892;28;20010;-77
2022/07/12 14:21:14;;;;;;;;;;;;;;;;;;5116531;28;19942;-76
2022/07/12 14:23:40;;;;;;;;;;;;;;;;;;5115018;28;19915;-76
2022/07/12 14:26:05;;;;;;;;;;;;;;;;;;5097911;28;20234;-77
2022/07/12 14:28:31;;;;;;;;;;;;;;;;;;5117114;28;19983;-77
2022/07/12 14:30:56;;;;;;;;;;;;;;;;;;5115312;28;20277;-77
2022/07/12 14:33:21;;;;;;;;;;;;;;;;;;5116449;28;19931;-77
2022/07/12 14:35:46;;;;;;;;;;;;;;;;;;5116372;28;20021;-78
2022/07/12 14:38:12;;;;;;;;;;;;;;;;;;5115229;28;20392;-78
2022/07/12 14:40:38;;;;;;;;;;;;;;;;;;5098351;28;20265;-78
2022/07/12 14:43:03;;;;;;;;;;;;;;;;;;5115340;28;20006;-78
2022/07/12 14:45:28;;;;;;;;;;;;;;;;;;5115238;28;19965;-77
2022/07/12 14:47:54;;;;;;;;;;;;;;;;;;5116253;28;19976;-78
2022/07/12 14:50:19;;;;;;;;;;;;;;;;;;5115800;28;19916;-77
2022/07/12 14:52:44;;;;;;;;;;;;;;;;;;5114600;28;19916;-77
2022/07/12 14:55:09;;;;;;;;;;;;;;;;;;5097531;28;19924;-76
2022/07/12 14:57:35;;;;;;;;;;;;;;;;;;5114965;28;19920;-77
2022/07/12 15:00:00;;;;;;;;;;;;;;;;;;5115544;28;19959;-77
2022/07/12 15:02:28;;;;;;;;;;;;;;;;;;5113886;28;19964;-77
2022/07/12 15:04:53;;;;;;;;;;;;;;;;;;5115878;28;19923;-77
2022/07/12 15:07:18;;;;;;;;;;;;;;;;;;5115215;28;19916;-77
2022/07/12 15:09:44;;;;;;;;;;;;;;;;;;5115424;28;20014;-77
2022/07/12 15:12:09;;;;;;;;;;;;;;;;;;5114029;28;19931;-78
2022/07/12 15:14:34;;;;;;;;;;;;;;;;;;5114360;28;19916;-78
2022/07/12 15:16:59;;;;;;;;;;;;;;;;;;5114072;28;20110;-77
2022/07/12 15:19:25;;;;;;;;;;;;;;;;;;5116633;28;19916;-77
2022/07/12 15:21:50;;;;;;;;;;;;;;;;;;5114546;28;19915;-77
2022/07/12 15:24:15;;;;;;;;;;;;;;;;;;5114121;28;19938;-77
2022/07/12 15:26:41;;;;;;;;;;;;;;;;;;5116682;28;19955;-77
2022/07/12 15:29:06;;;;;;;;;;;;;;;;;;5097679;28;19915;-77
2022/07/12 15:31:32;;;;;;;;;;;;;;;;;;5115669;28;19939;-77
2022/07/12 15:33:58;;;;;;;;;;;;;;;;;;5114826;28;20283;-77
2022/07/12 15:36:23;;;;;;;;;;;;;;;;;;5114705;28;19926;-78
2022/07/12 15:38:48;;;;;;;;;;;;;;;;;;5113385;28;19912;-77
2022/07/12 15:41:14;;;;;;;;;;;;;;;;;;5114607;28;19919;-77
2022/07/12 15:43:40;;;;;;;;;;;;;;;;;;5113000;28;20336;-77
2022/07/12 15:46:05;;;;;;;;;;;;;;;;;;5095834;28;19934;-76
2022/07/12 15:48:31;;;;;;;;;;;;;;;;;;5114524;28;19915;-78
2022/07/12 15:50:56;;;;;;;;;;;;;;;;;;5112924;28;19912;-78
2022/07/12 15:53:27;;;;;;;;;;;;;;;;;;5095852;28;19916;-77
2022/07/12 15:55:55;;;;;;;;;;;;;;;;;;5112754;28;19999;-77
2022/07/12 15:58:23;;;;;;;;;;;;;;;;;;5096049;28;20206;-76
2022/07/12 16:00:48;;;;;;;;;;;;;;;;;;5113138;28;19922;-77
2022/07/12 16:03:15;;;;;;;;;;;;;;;;;;5114424;28;19920;-77
2022/07/12 16:05:40;;;;;;;;;;;;;;;;;;5114089;28;19954;-77
2022/07/12 16:08:06;;;;;;;;;;;;;;;;;;5114246;28;19920;-78
2022/07/12 16:10:32;;;;;;;;;;;;;;;;;;5113031;28;19912;-77
2022/07/12 16:12:57;;;;;;;;;;;;;;;;;;5113124;28;19918;-77
2022/07/12 16:15:22;;;;;;;;;;;;;;;;;;5112782;28;20014;-77
2022/07/12 16:17:48;;;;;;;;;;;;;;;;;;5112798;28;19935;-78
2022/07/12 16:20:13;;;;;;;;;;;;;;;;;;5112492;28;19980;-76
2022/07/12 16:22:38;;;;;;;;;;;;;;;;;;5113045;28;19916;-77
2022/07/12 16:25:04;;;;;;;;;;;;;;;;;;5114015;28;19919;-78
2022/07/12 16:27:29;;;;;;;;;;;;;;;;;;5114289;28;19938;-75
2022/07/12 16:29:54;;;;;;;;;;;;;;;;;;5096934;28;19915;-77
2022/07/12 16:32:20;;;;;;;;;;;;;;;;;;5114495;28;19923;-77
2022/07/12 16:34:46;;;;;;;;;;;;;;;;;;5095373;28;19920;-77
2022/07/12 16:37:11;;;;;;;;;;;;;;;;;;5112934;28;20022;-77
2022/07/12 16:39:36;;;;;;;;;;;;;;;;;;5114084;28;19916;-77
2022/07/12 16:42:02;;;;;;;;;;;;;;;;;;5113646;28;19916;-77
2022/07/12 16:44:28;;;;;;;;;;;;;;;;;;5111969;28;19911;-77
2022/07/12 16:46:53;;;;;;;;;;;;;;;;;;5113744;28;19931;-77
2022/07/12 16:49:18;;;;;;;;;;;;;;;;;;5112275;28;19965;-77
2022/07/12 16:51:44;;;;;;;;;;;;;;;;;;5111966;28;19916;-77